15.12.2018Höhe
ü. NN
ZeitTemperatur (°C)Nieder-
schlag
Luft-
feuchte
Luft-
druck
Wind
StationaktuellMinimumMaximumaktuellMaximum
Aldingen654 m21:26-5,3-5,4 (20:27)-2,9 (14:11)0,0 l/m²86%1022,413,0 km/h (3 Bft) SO20,4 km/h (4 Bft) S-SO (18:25)
Allmendingen541 m21:25-3,4-3,4 (21:25)-2,2 (14:05)0,0 l/m²85%1021,80,0 km/h (0 Bft) O-SO17,7 km/h (3 Bft) SO (20:00)
Altshausen574 m21:25-7,2-7,3 (21:22)-2,2 (13:38)0,0 l/m²89%1017,70,0 km/h (0 Bft) N-NO17,7 km/h (3 Bft) O-NO (10:38)
Amstetten-Reutti663 m17:50-3,5-3,8 (01:40)-2,9 (15:40)0,0 l/m²85%1024,224,1 km/h (4 Bft) O29,0 km/h (5 Bft) O (16:55)
Amtzell-Grenis677 m21:25-7,2-7,2 (21:05)-2,3 (14:15)0,0 l/m²83%1022,86,4 km/h (2 Bft) NO22,5 km/h (4 Bft) O (11:20)
Aulendorf570 m21:25-5,2-5,2 (21:03)-1,9 (14:06)0,0 l/m²84%1021,09,7 km/h (2 Bft) NO17,7 km/h (3 Bft) O-NO (13:36)
Bad Krozingen233 m21:25-2,3-2,5 (20:40)0,9 (13:25)0,0 l/m²86%1021,63,3 km/h (1 Bft) S-SO9,9 km/h (2 Bft) N (14:30)
Bad Saulgau595 m21:25-6,6-6,6 (21:15)-1,9 (14:10)0,0 l/m²88%1020,63,2 km/h (1 Bft) W19,3 km/h (3 Bft) W (10:40)
Bad Saulgau-Lampertsweiler627 m21:25-5,9-5,9 (21:20)-3,1 (13:25)0,0 l/m²83%1023,80,0 km/h (0 Bft) SW24,1 km/h (4 Bft) O-SO (11:55)
Bad Schussenried572 m21:25-5,9-5,9 (21:25)-1,4 (13:55)0,0 l/m²86%1020,10,0 km/h (0 Bft) O17,7 km/h (3 Bft) O-SO (13:55)
Biberach (Riss), Boehringer533 m21:20-4,9-5,1 (21:10)-1,9 (15:20)0,0 l/m²87%1020,13,2 km/h (1 Bft) N18,4 km/h (3 Bft) S-SO (10:00)
Biberach (Riss), Realschule553 m21:25-5,2-5,2 (21:25)-2,5 (14:45)0,0 l/m²86%1022,74,8 km/h (1 Bft) NO24,1 km/h (4 Bft) O-NO (15:30)
Bodnegg-Rotheidlen677 m21:25-6,7-6,7 (21:05)-2,7 (15:15)0,0 l/m²87%1021,56,4 km/h (2 Bft) NO14,5 km/h (3 Bft) O-NO (15:20)
Burgrieden523 m21:25-4,6-4,6 (21:15)-2,4 (12:30)0,0 l/m²81%1021,88,0 km/h (2 Bft) O-NO17,7 km/h (3 Bft) O-NO (14:05)
Burgrieden-Hochstetten510 m21:25-5,0-5,0 (21:25)-1,8 (11:45)0,0 l/m²87%1021,84,8 km/h (1 Bft) O-SO20,9 km/h (4 Bft) O-SO (15:25)
Donauwörth411 m21:25-2,1-2,1 (21:25)-1,1 (15:00)0,0 l/m²74%1022,712,9 km/h (3 Bft) O-SO17,7 km/h (3 Bft) O (21:10)
Ebersbach579 m21:25-5,4-5,4 (21:15)-2,4 (14:25)0,0 l/m²88%1022,40,0 km/h (0 Bft) O-NO19,3 km/h (3 Bft) O-NO (13:50)
Ebersbach-Boos605 m21:25-5,7-5,8 (21:25)-2,9 (13:20)0,0 l/m²89%1022,114,5 km/h (3 Bft) O-NO20,9 km/h (4 Bft) O (10:35)
Ebersbach-Menzenweiler661 m21:25-5,9-5,9 (21:00)-3,2 (14:05)0,0 l/m²90%1022,120,9 km/h (4 Bft) O-NO24,1 km/h (4 Bft) O (13:35)
Ehingen535 m21:25-4,4-4,4 (21:25)-1,9 (14:00)0,0 l/m²81%1021,82,6 km/h (1 Bft) O-NO13,1 km/h (3 Bft) O-NO (17:40)
Erlenmoos645 m21:25-5,8-5,8 (21:05)-2,2 (15:15)0,0 l/m²92%1022,00,0 km/h (0 Bft) O-SO22,5 km/h (4 Bft) O-SO (12:05)
Ertingen569 m21:30-5,2-5,2 (21:30)-2,5 (14:50)0,0 l/m²88%1021,58,0 km/h (2 Bft) O-NO16,1 km/h (3 Bft) NO (14:00)
Friedrichshafen405 m21:25-4,4-4,4 (21:25)1,9 (14:45)0,0 l/m²82%1021,76,4 km/h (2 Bft) N-NO14,5 km/h (3 Bft) O-NO (08:45)
Günzburg443 m21:25-2,3-2,3 (20:15)-1,2 (12:30)0,0 l/m²78%1019,76,4 km/h (2 Bft) S17,7 km/h (3 Bft) N-NO (17:44)
Höchsten802 m21:25-7,2-7,3 (21:00)-4,3 (14:50)0,0 l/m²90%1019,712,9 km/h (3 Bft) NO22,5 km/h (4 Bft) NO (14:35)
Horgenzell618 m21:25-3,3-3,3 (00:00)-3,3 (00:00)0,0 l/m²86%1014,712,9 km/h (3 Bft) O-NO12,9 km/h (3 Bft) O-NO (00:00)
Hoßkirch632 m21:25-7,4-7,4 (21:05)-1,6 (14:10)0,0 l/m²90%1020,93,2 km/h (1 Bft) O-NO20,9 km/h (4 Bft) O-NO (11:45)
Isny, Am Dreifingerbach695 m21:25-8,4-8,4 (21:25)-2,2 (13:30)0,0 l/m²89%1021,31,6 km/h (1 Bft) O-NO16,1 km/h (3 Bft) O (10:00)
Isny, Weidachweg706 m21:25-9,6-9,7 (21:10)-2,0 (15:25)0,0 l/m²88%1023,03,2 km/h (1 Bft) O16,1 km/h (3 Bft) SO (09:25)
Kappel-Grafenhausen163 m21:20-2,3-2,4 (20:10)2,5 (13:55)0,0 l/m²88%1019,20,0 km/h (0 Bft) N12,9 km/h (3 Bft) W (15:00)
Kirchberg an der Iller584 m21:25-4,5-4,5 (21:10)-2,6 (15:10)0,0 l/m²84%1012,20,0 km/h (0 Bft) W-NW13,8 km/h (3 Bft) W-NW (17:10)
Kißlegg-Staibshof709 m21:25-6,3-6,3 (21:05)-3,0 (13:45)0,0 l/m²90%1021,78,0 km/h (2 Bft) O-NO14,5 km/h (3 Bft) O-SO (11:40)
Kressbronn398 m21:28-4,4-4,4 (21:26)-0,3 (12:18)0,0 l/m²77%1020,40,0 km/h (0 Bft) N-NO12,9 km/h (3 Bft) N-NO (09:52)
Kreuzthal-Steinberg-Alpe930 m21:20-9,3-9,4 (21:20)-1,2 (14:00)0,0 l/m²100%1021,00,4 km/h (0 Bft) S12,6 km/h (3 Bft) W-NW (11:40)
Kreuzthal-Steinberggipfel1040 m21:20-6,4-8,0 (19:20)-3,7 (12:10)-88%1021,06,1 km/h (2 Bft) SO18,7 km/h (3 Bft) NW (17:20)
Kristberg im Montafon (AT)1425 m21:25-5,4-11,3 (04:25)-0,1 (11:45)0,0 l/m²56%1022,54,8 km/h (1 Bft) N-NO9,7 km/h (2 Bft) N-NO (20:35)
Laupheim500 m21:25-4,2-4,3 (21:25)-2,2 (14:20)0,0 l/m²83%1021,14,8 km/h (1 Bft) O24,1 km/h (4 Bft) O (11:45)
Leutkirch-Heggelbach670 m21:25-7,3-7,3 (20:35)-2,9 (14:10)0,0 l/m²89%1020,90,0 km/h (0 Bft) N-NO3,2 km/h (1 Bft) O-NO (09:35)
Lindau-Insel420 m21:25-3,9-3,9 (21:25)0,4 (14:25)0,2 l/m²77%1020,74,8 km/h (1 Bft) NO14,5 km/h (3 Bft) NO (00:25)
Lindau-Stadt412 m21:25-4,6-4,6 (21:15)0,3 (11:15)0,0 l/m²79%1021,03,2 km/h (1 Bft) NO11,3 km/h (2 Bft) NO (02:55)
Maierhöfen im Allgäu733 m21:25-7,3-7,9 (20:55)-2,9 (13:25)0,0 l/m²86%1021,94,8 km/h (1 Bft) SO17,7 km/h (3 Bft) O-SO (08:45)
Maselheim-Sulmingen548 m21:25-6,1-6,1 (21:25)-2,5 (12:25)0,0 l/m²86%1023,23,2 km/h (1 Bft) O-SO20,9 km/h (4 Bft) O (14:00)
Mietingen-Baltringen528 m21:25-5,1-5,1 (21:25)-2,3 (14:05)0,0 l/m²82%1023,64,8 km/h (1 Bft) O17,7 km/h (3 Bft) O-SO (15:10)
Mindelheim-Apfeltrach620 m21:26-6,8-6,8 (21:14)-3,3 (12:56)0,0 l/m²89%1023,03,2 km/h (1 Bft) SO17,7 km/h (3 Bft) SO (10:34)
Neresheim552 m17:41-3,2-3,2 (17:41)-2,1 (09:34)0,0 l/m²80%1021,411,5 km/h (2 Bft) S-SO11,5 km/h (2 Bft) S-SO (17:41)
Neukirch570 m21:25-6,0-6,0 (21:15)-1,1 (14:55)0,0 l/m²87%1021,59,7 km/h (2 Bft) NO20,9 km/h (4 Bft) O-NO (11:50)
Ochsenhausen, Birkenstraße613 m21:25-6,1-6,1 (21:25)-2,3 (15:20)0,0 l/m²81%1022,11,6 km/h (1 Bft) O19,3 km/h (3 Bft) O-NO (14:15)
Ostrach619 m21:25-6,8-6,8 (21:25)-0,5 (14:10)0,0 l/m²90%1020,30,0 km/h (0 Bft) O-NO17,7 km/h (3 Bft) N-NO (14:45)
Ravensburg428 m21:25-4,4-4,4 (21:20)2,3 (14:10)0,0 l/m²84%1020,712,9 km/h (3 Bft) N-NO19,3 km/h (3 Bft) NO (11:55)
Reichenbach an der Fils343 m21:25-2,6-2,6 (21:20)-0,3 (13:20)0,0 l/m²78%1023,517,7 km/h (3 Bft) SO41,8 km/h (6 Bft) SO (17:55)
Reinstetten559 m21:25-5,5-5,6 (21:25)-2,6 (13:45)0,0 l/m²87%1022,33,2 km/h (1 Bft) O24,1 km/h (4 Bft) O-SO (14:35)
Riedlingen530 m21:25-4,6-4,6 (21:25)-2,4 (14:30)0,0 l/m²85%1021,60,0 km/h (0 Bft) NO17,7 km/h (3 Bft) SO (09:00)
Rißtissen489 m21:25-3,5-3,5 (21:25)-1,5 (13:25)0,0 l/m²84%1019,44,8 km/h (1 Bft) O16,1 km/h (3 Bft) O-NO (09:05)
Schemmerhofen520 m21:25-4,7-4,7 (21:25)-2,0 (14:30)0,0 l/m²87%1021,34,8 km/h (1 Bft) O24,1 km/h (4 Bft) O (17:05)
Silbertal im Montafon (AT)884 m21:25-8,6-10,3 (08:25)-7,4 (00:00)0,0 l/m²89%1024,30,0 km/h (0 Bft) W1,6 km/h (1 Bft) W (10:20)
Tettnang466 m21:25-4,5-4,5 (21:25)-0,2 (15:25)0,0 l/m²79%1020,04,8 km/h (1 Bft) NO16,1 km/h (3 Bft) NO (12:00)
Tuttlingen662 m21:25-8,8-8,8 (21:05)-4,4 (12:50)0,0 l/m²86%1021,80,0 km/h (0 Bft) O-NO30,6 km/h (5 Bft) O-SO (13:50)
Ummendorf547 m21:25-5,0-5,1 (20:55)-2,4 (14:25)0,0 l/m²85%1022,614,5 km/h (3 Bft) SO19,3 km/h (3 Bft) O-SO (14:35)
Ummendorf-Fischbach558 m21:25-5,5-5,6 (21:05)-2,7 (14:30)0,0 l/m²86%1022,512,9 km/h (3 Bft) N-NO19,3 km/h (3 Bft) NO (14:25)
Waldburg707 m21:25-6,5-6,5 (21:25)-2,3 (14:25)0,0 l/m²89%1021,19,7 km/h (2 Bft) N16,1 km/h (3 Bft) N (10:25)
Waltenhofen im Allgäu720 m21:25-11,8-11,9 (21:25)-1,9 (12:45)0,0 l/m²89%1022,20,0 km/h (0 Bft) O-SO8,0 km/h (2 Bft) O-SO (01:40)
Weingarten500 m21:25-5,2-5,2 (21:25)0,0 (14:40)0,0 l/m²85%1021,20,0 km/h (0 Bft) N-NO16,1 km/h (3 Bft) NO (13:45)
Winterlingen785 m19:15-7,8-7,8 (19:15)-4,7 (12:45)0,0 l/m²92%1020,91,4 km/h (1 Bft) O-NO7,6 km/h (2 Bft) O-NO (09:00)
'Föhnfenster', bei Bergatreute
Fotograf: Peter Zeh, 31.10.2018

AKTUELL

Tornado
Bad Waldsee - Reute
13.06.2016

>> zum Video

Mit freundlicher Genehmigung von
Peter Stotz

  Wetterwarte Süd - Bad Schussenried | Samstag, 15. Dezember 2018 | 21:25 Uhr
 
aktuell
Minimum
Maximum
Durchschnitt
   Temperatur
-5,9 °C
-5,9 °C
(21:25 Uhr)
-1,4 °C
(13:55 Uhr)
-3,3 °C
   Windchill
-5,9 °C
-6,6 °C
(11:35 Uhr)
-1,5 °C
(13:50 Uhr)
-3,4 °C
   Luftfeuchtigkeit
86 %
76 %
(14:20 Uhr)
87 %
(20:15 Uhr)
81 %
  Taupunkt
-7,9 °C
-7,9 °C
(21:25 Uhr)
-5,0 °C
(13:50 Uhr)
-6,0 °C
  Luftdruck
1020,1 hPa
1020,1 hPa
(21:25 Uhr)
1024,9 hPa
(10:25 Uhr)
1023,1 hPa
  Wind
0,0 km/h
86 ° / O
0,0 km/h
(00:05 Uhr)
17,7 km/h
(13:55 Uhr)
7,1 km/h
  Niederschlag
letzte Stunde: 0,0 l/m²
aktuelle Woche: 5,8 l/m²
 
heute: 0,0 l/m²
aktueller Monat: 41,4 l/m²
 Sonnenaufgang heute:
08:04 Uhr
 |   
Sonnenaufgang morgen:
08:05    16. Dezember 2018
 Sonnenuntergang heute:
16:28 Uhr
 |   
Sonnenuntergang morgen:
16:28    16. Dezember 2018
Die dargestellten Werte repräsentieren die Daten des akt. Tages!
 
wetterstationen
wetterstationen
- derzeit 73 Stationen
wetterstationen
wetterstationen
- kartographische Darstellung
niederschlagsdatenbank
niederschlagsstationen
- derzeit 102 Stationen
niederschlagsdatenbank
niederschlagsstationen
- kartographische Darstellung
webcams
interessante webcams
im Vorhersagegebiet
 
Fr. 7.30 Uhr - Sa. 7.30 Uhr (MEZ)
1.Füramoos0,7 l/m²
2.Langenau0,0 l/m²
3.Gutenzell0,0 l/m²
4.Ehingen
Rosenstraße
0,0 l/m²
 
Sa. 15.12.2018 - 7.30 Uhr (MEZ)
1.Kreuzthal-Steinberg-Alpe7 cm
2.Amstetten-Reutti4 cm
3.Schelklingen-Gundershofen4 cm
4.Isny3 cm
5.Ehingen
Schillerstraße
2 cm Rest
6.Bad Wurzach-Seibranz1 cm
7.Leutkirch-Adrazhofen1 cm
8.BalzheimReste
9.GutenzellReste
10.Ehingen
Schlaufenbühl
Reste
11.Leutkirch
Nachtigallenweg 28
Reste
12.Öpfingen"Reste"
 
 besucherzahl
40.145.364

 
  treffpunkt & service

zugriffe:
insgesamt: 40.145.364
aktueller monat: 219.376
heute: 14.820
momentan online: 41
 
 
monatshöchstwert: 653.625
vorheriger monat: 361.432
gestern: 10.537
tageshöchstwert: 45.129
 
wetterwarte süd
 
konradstraße 3
info@wetterwarte-sued.com
roland roth
 
88427 bad schussenried